.
WxDataArchive / Data Records for 2008-10-20
2008-10-19 October 2008 2008-10-21

Data Records for Monday, 20 October 2008

Time	Temp	Chill	HIndex	Humid	Dewpt	 Wind 	HiWind	WindDir	Rain 	Barom 
-----	----	-----	------	-----	-----	------	------	-------	-----	----- 
00:00	40.8	40.8	40.8	69	31.4	0	0	---	0.00	30.191 
00:05	41.1	41.1	41.1	68	31.4	0	0	---	0.00	30.188 
00:10	41.5	41.5	41.5	66	31.0	0	0	---	0.00	30.187 
00:15	41.9	41.9	41.9	65	31.0	0	1	90	0.00	30.186 
00:20	42.3	42.3	42.3	64	31.0	0	3	270	0.00	30.187 
00:25	42.9	42.9	42.9	63	31.2	0	1	270	0.00	30.184 
00:30	43.3	43.3	43.3	62	31.2	0	2	270	0.00	30.184 
00:35	43.5	43.5	43.5	62	31.4	0	1	270	0.00	30.187 
00:40	43.8	43.8	43.8	62	31.6	0	0	---	0.00	30.191 
00:45	43.6	43.6	43.6	62	31.5	0	1	270	0.00	30.191 
00:50	43.5	43.5	43.5	62	31.4	0	0	---	0.00	30.193 
00:55	43.3	43.3	43.3	63	31.6	0	0	---	0.00	30.194 
01:00	43.1	43.1	43.1	63	31.4	0	0	---	0.00	30.195 
01:05	42.9	42.9	42.9	64	31.6	0	0	---	0.00	30.195 
01:10	42.6	42.6	42.6	65	31.7	0	0	---	0.00	30.196 
01:15	42.2	42.2	42.2	65	31.3	0	0	---	0.00	30.196 
01:20	41.9	41.9	41.9	67	31.8	0	0	---	0.00	30.196 
01:25	41.8	41.8	41.8	68	32.0	0	0	---	0.00	30.195 
01:30	41.5	41.5	41.5	68	31.7	0	0	---	0.00	30.196 
01:35	41.2	41.2	41.2	69	31.8	0	0	---	0.00	30.200 
01:40	40.9	40.9	40.9	70	31.9	0	0	---	0.00	30.201 
01:45	40.6	40.6	40.6	71	31.9	0	0	---	0.00	30.203 
01:50	40.5	40.5	40.5	72	32.2	0	0	---	0.00	30.203 
01:55	40.2	40.2	40.2	73	32.2	0	0	---	0.00	30.206 
02:00	40.1	40.1	40.1	73	32.2	0	0	---	0.00	30.205 
02:05	39.9	39.9	39.9	74	32.3	0	0	---	0.00	30.206 
02:10	39.6	39.6	39.6	74	32.0	0	0	---	0.00	30.208 
02:15	39.5	39.5	39.5	75	32.2	0	0	---	0.00	30.210 
02:20	39.3	39.3	39.3	76	32.4	0	0	---	0.00	30.211 
02:25	39.2	39.2	39.2	78	32.9	0	0	---	0.00	30.209 
02:30	39.1	39.1	39.1	79	33.1	0	0	---	0.00	30.208 
02:35	38.9	38.9	38.9	79	33.0	0	0	---	0.00	30.209 
02:40	38.8	38.8	38.8	79	32.9	0	0	---	0.00	30.206 
02:45	38.6	38.6	38.6	80	33.0	0	0	---	0.00	30.201 
02:50	38.5	38.5	38.5	80	32.9	0	0	---	0.00	30.200 
02:55	38.5	38.5	38.5	81	33.2	0	0	---	0.00	30.201 
03:00	38.3	38.3	38.3	81	33.0	0	0	---	0.00	30.200 
03:05	38.2	38.2	38.2	82	33.2	0	0	---	0.00	30.201 
03:10	38.0	38.0	38.0	82	33.0	0	0	---	0.00	30.201 
03:15	38.0	38.0	38.0	83	33.3	0	0	---	0.00	30.200 
03:20	37.9	37.9	37.9	83	33.2	0	0	---	0.00	30.201 
03:25	37.8	37.8	37.8	84	33.4	0	0	---	0.00	30.203 
03:30	37.8	37.8	37.8	84	33.4	0	0	---	0.00	30.201 
03:35	37.6	37.6	37.6	84	33.2	0	0	---	0.00	30.202 
03:40	37.6	37.6	37.6	85	33.5	0	0	---	0.00	30.201 
03:45	37.5	37.5	37.5	85	33.4	0	0	---	0.00	30.200 
03:50	37.5	37.5	37.5	85	33.4	0	0	---	0.00	30.203 
03:55	37.3	37.3	37.3	85	33.2	0	0	---	0.00	30.205 
04:00	37.2	37.2	37.2	85	33.1	0	0	---	0.00	30.207 
04:05	37.2	37.2	37.2	86	33.4	0	0	---	0.00	30.211 
04:10	37.0	37.0	37.0	86	33.2	0	0	---	0.00	30.213 
04:15	36.9	36.9	36.9	87	33.4	0	0	---	0.00	30.214 
04:20	36.8	36.8	36.8	87	33.3	0	0	---	0.00	30.213 
04:25	36.8	36.8	36.8	87	33.3	0	0	---	0.00	30.213 
04:30	36.6	36.6	36.6	87	33.1	0	0	---	0.00	30.213 
04:35	36.5	36.5	36.5	87	33.0	0	0	---	0.00	30.214 
04:40	36.5	36.5	36.5	88	33.3	0	0	---	0.00	30.212 
04:45	36.3	36.3	36.3	88	33.1	0	0	---	0.00	30.214 
04:50	36.3	36.3	36.3	88	33.1	0	0	---	0.00	30.215 
04:55	36.2	36.2	36.2	88	33.0	0	0	---	0.00	30.215 
05:00	36.0	36.0	36.0	88	32.8	0	0	---	0.00	30.214 
05:05	36.0	36.0	36.0	88	32.8	0	0	---	0.00	30.216 
05:10	35.9	35.9	35.9	89	33.0	0	0	---	0.00	30.215 
05:15	35.8	35.8	35.8	89	32.9	0	0	---	0.00	30.213 
05:20	35.8	35.8	35.8	89	32.9	0	0	---	0.00	30.214 
05:25	35.8	35.8	35.8	89	32.9	0	0	---	0.00	30.212 
05:30	35.8	35.8	35.8	90	33.2	0	0	---	0.00	30.210 
05:35	35.8	35.8	35.8	90	33.2	0	0	---	0.00	30.211 
05:40	35.8	35.8	35.8	90	33.2	0	0	---	0.00	30.209 
05:45	35.8	35.8	35.8	90	33.2	0	0	---	0.00	30.210 
05:50	35.6	35.6	35.6	90	33.0	0	0	---	0.00	30.209 
05:55	35.6	35.6	35.6	90	33.0	0	0	---	0.00	30.207 
06:00	35.6	35.6	35.6	91	33.2	0	0	---	0.00	30.205 
06:05	35.6	35.6	35.6	91	33.2	0	0	---	0.00	30.210 
06:10	35.6	35.6	35.6	91	33.2	0	0	---	0.00	30.209 
06:15	35.8	35.8	35.8	91	33.4	0	0	---	0.00	30.209 
06:20	35.9	35.9	35.9	91	33.5	0	0	---	0.00	30.207 
06:25	36.0	36.0	36.0	91	33.6	0	0	---	0.00	30.206 
06:30	36.5	36.5	36.5	91	34.1	0	1	270	0.00	30.203 
06:35	37.0	37.0	37.0	90	34.3	0	1	270	0.00	30.205 
06:40	37.5	37.5	37.5	89	34.6	0	0	---	0.00	30.204 
06:45	37.8	37.8	37.8	88	34.6	0	0	---	0.00	30.204 
06:50	37.9	37.9	37.9	88	34.7	0	0	---	0.00	30.202 
06:55	38.0	38.0	38.0	86	34.2	0	0	---	0.00	30.202 
07:00	38.3	38.3	38.3	85	34.2	0	1	270	0.00	30.200 
07:05	38.6	38.6	38.6	84	34.2	0	1	270	0.00	30.201 
07:10	39.1	39.1	39.1	82	34.1	0	1	270	0.00	30.201 
07:15	39.5	39.5	39.5	81	34.2	0	1	270	0.00	30.198 
07:20	39.6	39.6	39.6	80	33.9	0	1	270	0.00	30.195 
07:25	39.9	39.9	39.9	80	34.2	0	1	270	0.00	30.195 
07:30	40.1	40.1	40.1	79	34.1	0	0	---	0.00	30.194 
07:35	40.3	40.3	40.3	78	34.0	0	1	270	0.00	30.194 
07:40	40.8	40.8	40.8	78	34.5	0	0	---	0.00	30.194 
07:45	41.1	41.1	41.1	77	34.4	0	1	270	0.00	30.196 
07:50	41.6	41.6	41.6	76	34.6	0	4	248	0.00	30.193 
07:55	42.3	42.3	42.3	75	35.0	0	2	248	0.00	30.192 
08:00	43.1	43.1	43.1	73	35.0	0	3	248	0.00	30.193 
08:05	43.6	43.6	43.6	72	35.2	0	3	248	0.00	30.192 
08:10	44.5	44.5	44.5	70	35.3	1	3	225	0.00	30.192 
08:15	45.1	45.1	45.1	69	35.5	0	2	248	0.00	30.191 
08:20	45.8	45.8	45.8	67	35.5	0	2	248	0.00	30.190 
08:25	46.4	46.4	46.4	66	35.7	1	3	248	0.00	30.190 
08:30	47.0	47.0	47.0	64	35.5	1	3	248	0.00	30.191 
08:35	47.7	47.7	47.7	62	35.3	1	2	248	0.00	30.191 
08:40	48.3	48.3	48.3	61	35.5	1	5	248	0.00	30.190 
08:45	48.6	48.6	48.6	60	35.3	0	2	248	0.00	30.189 
08:50	48.5	48.5	48.5	61	35.7	0	1	248	0.00	30.191 
08:55	48.5	48.5	48.5	61	35.7	0	3	248	0.00	30.189 
09:00	48.8	48.8	48.8	61	36.0	0	3	248	0.00	30.188 
09:05	49.5	49.5	49.5	60	36.2	1	2	248	0.00	30.187 
09:10	50.4	50.4	50.4	59	36.6	1	6	135	0.00	30.183 
09:15	51.1	51.1	51.1	58	36.8	1	3	225	0.00	30.180 
09:20	51.7	51.7	51.7	55	36.1	1	3	248	0.00	30.175 
09:25	52.3	52.3	52.3	56	37.1	1	4	248	0.00	30.175 
09:30	52.9	52.9	52.9	56	37.6	1	4	248	0.00	30.172 
09:35	53.5	53.5	53.5	53	36.8	1	3	248	0.00	30.173 
09:40	53.9	53.9	53.9	54	37.6	1	3	270	0.00	30.170 
09:45	54.4	54.4	54.4	52	37.1	1	5	270	0.00	30.168 
09:50	54.7	54.7	54.7	51	36.9	1	5	248	0.00	30.165 
09:55	55.1	55.1	55.1	51	37.3	1	4	248	0.00	30.164 
10:00	55.4	55.4	55.4	50	37.1	2	5	248	0.00	30.163 
10:05	55.9	55.9	55.9	49	37.0	2	4	248	0.00	30.160 
10:10	56.2	56.2	56.2	50	37.8	1	5	248	0.00	30.160 
10:15	56.7	56.7	56.7	50	38.3	1	5	248	0.00	30.157 
10:20	57.2	57.2	57.2	47	37.2	2	5	270	0.00	30.153 
10:25	57.5	57.5	57.5	47	37.4	1	5	248	0.00	30.151 
10:30	58.0	58.0	58.0	47	37.9	2	5	248	0.00	30.149 
10:35	58.3	58.3	58.3	48	38.7	1	4	248	0.00	30.149 
10:40	58.9	58.9	58.9	47	38.7	2	5	225	0.00	30.149 
10:45	59.3	59.3	59.3	46	38.5	1	7	270	0.00	30.148 
10:50	59.6	59.6	59.6	46	38.8	1	6	270	0.00	30.145 
10:55	60.1	60.1	60.1	44	38.1	1	5	248	0.00	30.143 
11:00	60.5	60.5	60.5	47	40.2	1	5	270	0.00	30.144 
11:05	60.9	60.9	60.9	45	39.4	1	7	248	0.00	30.144 
11:10	61.2	61.2	61.2	42	37.9	2	6	248	0.00	30.141 
11:15	61.5	61.5	61.5	44	39.4	1	5	225	0.00	30.135 
11:20	62.0	62.0	62.0	45	40.4	1	4	270	0.00	30.135 
11:25	61.8	61.8	61.8	41	37.8	3	5	248	0.00	30.132 
11:30	61.3	61.3	61.3	42	38.0	2	4	248	0.00	30.130 
11:35	61.2	61.2	61.2	43	38.5	1	4	248	0.00	30.130 
11:40	61.2	61.2	61.2	44	39.1	2	6	248	0.00	30.127 
11:45	61.3	61.3	61.3	45	39.8	1	3	248	0.00	30.125 
11:50	61.8	61.8	61.8	43	39.1	1	4	248	0.00	30.124 
11:55	62.4	62.4	62.4	43	39.6	1	5	248	0.00	30.115 
12:00	63.1	63.1	63.1	40	38.4	2	4	248	0.00	30.112 
12:05	63.2	63.2	63.2	41	39.1	1	4	248	0.00	30.109 
12:10	63.5	63.5	63.5	40	38.7	2	9	248	0.00	30.108 
12:15	63.7	63.7	63.7	40	38.9	2	5	248	0.00	30.103 
12:20	63.7	63.7	63.7	40	38.9	2	6	248	0.00	30.100 
12:25	63.9	63.9	63.9	42	40.4	1	5	270	0.00	30.097 
12:30	64.0	64.0	64.0	41	39.8	2	5	248	0.00	30.095 
12:35	64.0	64.0	64.0	42	40.4	2	6	248	0.00	30.093 
12:40	64.2	64.2	64.2	42	40.6	1	5	270	0.00	30.091 
12:45	64.3	64.3	64.3	41	40.1	2	6	270	0.00	30.086 
12:50	64.5	64.5	64.5	42	40.9	1	4	248	0.00	30.085 
12:55	64.8	64.8	64.8	41	40.5	1	3	248	0.00	30.083 
13:00	65.0	65.0	65.0	40	40.1	1	3	248	0.00	30.081 
13:05	65.0	65.0	65.0	40	40.1	2	5	248	0.00	30.083 
13:10	65.0	65.0	65.0	40	40.1	2	9	248	0.00	30.082 
13:15	65.2	65.2	65.2	42	41.5	1	6	248	0.00	30.081 
13:20	65.2	65.2	65.2	42	41.5	2	5	270	0.00	30.080 
13:25	65.3	65.3	65.3	41	41.0	2	4	248	0.00	30.077 
13:30	65.5	65.5	65.5	39	39.9	2	6	270	0.00	30.073 
13:35	65.5	65.5	65.5	38	39.2	2	4	248	0.00	30.071 
13:40	65.6	65.6	65.6	38	39.3	1	4	248	0.00	30.066 
13:45	66.0	66.0	66.0	39	40.3	2	4	248	0.00	30.064 
13:50	66.3	66.3	66.3	39	40.6	1	7	270	0.00	30.063 
13:55	66.3	66.3	66.3	39	40.6	2	4	248	0.00	30.063 
14:00	66.3	66.3	66.3	40	41.2	1	6	248	0.00	30.063 
14:05	66.4	66.4	66.4	40	41.3	1	6	270	0.00	30.063 
14:10	66.4	66.4	66.4	38	40.0	2	4	270	0.00	30.064 
14:15	66.3	66.3	66.3	39	40.6	2	4	248	0.00	30.063 
14:20	66.4	66.4	66.4	38	40.0	2	5	248	0.00	30.062 
14:25	66.4	66.4	66.4	37	39.3	2	6	248	0.00	30.061 
14:30	66.6	66.6	66.6	38	40.2	1	4	270	0.00	30.058 
14:35	66.8	66.8	66.8	38	40.4	2	6	248	0.00	30.061 
14:40	66.8	66.8	66.8	38	40.4	1	10	248	0.00	30.058 
14:45	66.9	66.9	66.9	39	41.1	1	5	270	0.00	30.055 
14:50	67.3	67.3	67.3	38	40.8	2	6	248	0.00	30.052 
14:55	67.8	67.8	67.8	36	39.9	1	5	248	0.00	30.053 
15:00	67.8	67.8	67.8	36	39.9	2	6	270	0.00	30.053 
15:05	67.4	67.4	67.4	38	40.9	2	4	248	0.00	30.053 
15:10	67.3	67.3	67.3	38	40.8	2	4	248	0.00	30.053 
15:15	67.3	67.3	67.3	37	40.1	1	4	248	0.00	30.053 
15:20	67.1	67.1	67.1	37	40.0	2	6	270	0.00	30.053 
15:25	66.9	66.9	66.9	38	40.5	2	7	248	0.00	30.053 
15:30	66.8	66.8	66.8	38	40.4	1	4	248	0.00	30.051 
15:35	66.4	66.4	66.4	39	40.7	2	4	270	0.00	30.052 
15:40	66.0	66.0	66.0	39	40.3	2	4	248	0.00	30.053 
15:45	65.6	65.6	65.6	40	40.6	2	5	248	0.00	30.056 
15:50	65.5	65.5	65.5	41	41.2	1	4	248	0.00	30.055 
15:55	65.5	65.5	65.5	41	41.2	1	3	248	0.00	30.055 
16:00	65.5	65.5	65.5	41	41.2	1	3	248	0.00	30.054 
16:05	65.5	65.5	65.5	40	40.5	0	3	248	0.00	30.053 
16:10	65.3	65.3	65.3	40	40.4	1	4	248	0.00	30.054 
16:15	65.3	65.3	65.3	40	40.4	1	2	248	0.00	30.054 
16:20	65.2	65.2	65.2	41	40.9	1	5	248	0.00	30.055 
16:25	65.2	65.2	65.2	40	40.3	1	4	270	0.00	30.055 
16:30	65.0	65.0	65.0	42	41.3	1	3	248	0.00	30.057 
16:35	65.0	65.0	65.0	41	40.7	1	3	248	0.00	30.057 
16:40	64.8	64.8	64.8	41	40.5	2	5	248	0.00	30.058 
16:45	64.8	64.8	64.8	42	41.2	1	5	248	0.00	30.059 
16:50	64.7	64.7	64.7	43	41.7	0	2	248	0.00	30.060 
16:55	64.5	64.5	64.5	43	41.5	0	1	248	0.00	30.062 
17:00	64.3	64.3	64.3	44	41.9	0	2	248	0.00	30.062 
17:05	64.3	64.3	64.3	44	41.9	0	1	248	0.00	30.063 
17:10	64.0	64.0	64.0	45	42.2	0	2	248	0.00	30.063 
17:15	63.9	63.9	63.9	45	42.1	1	3	248	0.00	30.060 
17:20	63.9	63.9	63.9	46	42.7	0	2	248	0.00	30.060 
17:25	63.7	63.7	63.7	46	42.5	0	2	225	0.00	30.059 
17:30	63.5	63.5	63.5	46	42.3	1	2	225	0.00	30.057 
17:35	63.4	63.4	63.4	47	42.8	1	4	248	0.00	30.057 
17:40	63.4	63.4	63.4	48	43.4	1	3	248	0.00	30.056 
17:45	63.2	63.2	63.2	48	43.2	0	2	248	0.00	30.056 
17:50	63.1	63.1	63.1	49	43.6	1	3	248	0.00	30.056 
17:55	63.1	63.1	63.1	50	44.2	1	2	248	0.00	30.058 
18:00	63.1	63.1	63.1	50	44.2	1	3	248	0.00	30.067 
18:05	62.6	62.6	62.6	53	45.2	3	6	315	0.00	30.069 
18:10	61.6	61.6	61.6	56	45.7	2	5	270	0.00	30.071 
18:15	60.9	60.9	60.9	58	46.0	1	3	315	0.00	30.077 
18:20	60.2	60.2	60.2	60	46.3	1	3	315	0.00	30.078 
18:25	59.9	59.9	59.9	61	46.4	1	3	338	0.00	30.082 
18:30	59.6	59.6	59.6	62	46.6	1	4	315	0.00	30.084 
18:35	59.3	59.3	59.3	65	47.5	1	3	315	0.00	30.085 
18:40	58.6	58.6	58.6	66	47.3	1	4	315	0.00	30.088 
18:45	58.1	58.1	58.1	68	47.6	0	2	338	0.00	30.089 
18:50	57.6	57.6	57.6	70	47.9	1	3	338	0.00	30.092 
18:55	57.3	57.3	57.3	73	48.7	0	1	315	0.00	30.092 
19:00	56.7	56.7	56.7	76	49.2	0	3	315	0.00	30.098 
19:05	56.0	56.0	56.0	79	49.6	1	3	315	0.01	30.095 
19:10	55.4	55.4	55.4	82	50.0	1	2	270	0.00	30.095 
19:15	54.8	54.8	54.8	84	50.1	1	2	292	0.00	30.096 
19:20	54.5	54.5	54.5	85	50.1	0	2	292	0.01	30.096 
19:25	54.4	54.4	54.4	87	50.6	0	2	292	0.00	30.098 
19:30	54.1	54.1	54.1	88	50.6	0	2	315	0.00	30.099 
19:35	53.9	53.9	53.9	88	50.4	0	2	315	0.00	30.100 
19:40	53.8	53.8	53.8	89	50.6	0	2	315	0.00	30.099 
19:45	53.8	53.8	53.8	90	50.9	0	3	315	0.01	30.101 
19:50	53.6	53.6	53.6	90	50.7	0	1	315	0.00	30.101 
19:55	53.5	53.5	53.5	91	50.9	0	2	315	0.00	30.102 
20:00	53.5	53.5	53.5	91	50.9	0	1	315	0.00	30.103 
20:05	53.5	53.5	53.5	92	51.2	0	2	315	0.00	30.100 
20:10	53.5	53.5	53.5	92	51.2	1	3	292	0.00	30.102 
20:15	53.3	53.3	53.3	92	51.0	0	2	292	0.00	30.103 
20:20	53.3	53.3	53.3	92	51.0	0	3	292	0.00	30.106 
20:25	53.3	53.3	53.3	93	51.3	1	3	292	0.01	30.109 
20:30	53.2	53.2	53.2	93	51.2	1	5	292	0.00	30.113 
20:35	52.6	52.6	52.6	92	50.3	3	6	315	0.00	30.115 
20:40	51.7	51.7	51.7	92	49.5	2	5	315	0.00	30.124 
20:45	51.3	51.3	51.3	92	49.1	1	6	0	0.00	30.128 
20:50	50.8	50.8	50.8	91	48.3	2	5	315	0.00	30.131 
20:55	49.9	49.9	49.9	91	47.4	2	6	315	0.00	30.139 
21:00	48.9	48.9	48.9	90	46.1	2	6	338	0.00	30.144 
21:05	48.2	48.2	48.2	90	45.4	2	5	22	0.00	30.140 
21:10	47.9	47.9	47.9	90	45.1	0	3	338	0.00	30.140 
21:15	47.7	47.7	47.7	91	45.2	1	4	45	0.00	30.138 
21:20	47.7	47.7	47.7	91	45.2	0	4	292	0.00	30.139 
21:25	47.7	47.7	47.7	91	45.2	0	3	315	0.00	30.139 
21:30	47.7	47.7	47.7	91	45.2	0	3	22	0.00	30.140 
21:35	47.7	47.7	47.7	91	45.2	0	2	0	0.00	30.143 
21:40	47.7	47.7	47.7	90	44.9	0	3	0	0.00	30.142 
21:45	47.7	47.7	47.7	90	44.9	0	2	315	0.00	30.143 
21:50	47.7	47.7	47.7	90	44.9	0	4	270	0.00	30.144 
21:55	47.9	47.9	47.9	90	45.1	0	2	292	0.00	30.144 
22:00	47.9	47.9	47.9	90	45.1	0	2	292	0.00	30.146 
22:05	48.0	48.0	48.0	89	44.9	0	2	292	0.00	30.143 
22:10	48.0	48.0	48.0	89	44.9	0	2	292	0.00	30.143 
22:15	48.0	48.0	48.0	89	44.9	0	1	0	0.00	30.141 
22:20	48.0	48.0	48.0	89	44.9	0	1	0	0.00	30.142 
22:25	48.2	48.2	48.2	89	45.1	0	1	0	0.00	30.150 
22:30	48.2	48.2	48.2	89	45.1	0	2	0	0.00	30.149 
22:35	48.2	48.2	48.2	88	44.8	0	2	0	0.00	30.147 
22:40	48.2	48.2	48.2	88	44.8	0	1	0	0.00	30.145 
22:45	48.2	48.2	48.2	88	44.8	0	2	0	0.00	30.146 
22:50	48.3	48.3	48.3	88	44.9	0	3	292	0.00	30.145 
22:55	48.3	48.3	48.3	88	44.9	0	1	292	0.00	30.147 
23:00	48.3	48.3	48.3	88	44.9	0	2	292	0.00	30.145 
23:05	48.3	48.3	48.3	87	44.6	1	3	292	0.00	30.146 
23:10	48.5	48.5	48.5	87	44.8	0	2	292	0.00	30.148 
23:15	48.5	48.5	48.5	87	44.8	0	1	292	0.00	30.146 
23:20	48.5	48.5	48.5	86	44.5	0	3	292	0.00	30.147 
23:25	48.5	48.5	48.5	85	44.2	0	2	0	0.00	30.149 
23:30	48.5	48.5	48.5	85	44.2	0	2	0	0.00	30.151 
23:35	48.3	48.3	48.3	84	43.7	1	3	315	0.00	30.152 
23:40	48.3	48.3	48.3	84	43.7	0	1	292	0.00	30.154 
23:45	48.2	48.2	48.2	84	43.6	0	1	292	0.00	30.154 
23:50	48.0	48.0	48.0	84	43.4	0	1	292	0.00	30.155 
23:55	47.7	47.7	47.7	84	43.1	0	1	292	0.00	30.155 

CoCoRaHS
IN-AL-39
A2 Web Hosting
Creative Commons License
GoDaddy
Look for:

loaded 2017-10-17 22:16:03 • last modified 2010-11-18 10:43:29
Privacy PolicyDisclaimer
• wx.awcolley.com is powered by PmWiki v.2002016 •
• all content (unless otherwise noted) © 2017 A W Colley